Time;durP1;ratioP1;P1;durP2;ratioP2;P2;SDS_P1;SDS_P2;PMS_P1;PMS_P2;Temp;Humidity;BMP_temperature;BMP_pressure;BME280_temperature;BME280_humidity;BME280_pressure;Samples;Min_cycle;Max_cycle;Signal;HPM_P1;HPM_P2
2021/08/27 00:01:50;;;;;;;11.10;5.10;;;;;;;;;;5046076;28;20258;-82
2021/08/27 00:04:17;;;;;;;10.40;5.20;;;;;;;;;;5048518;28;20204;-83
2021/08/27 00:06:47;;;;;;;8.33;4.70;;;;;;;;;;5051001;28;20261;-82
2021/08/27 00:09:14;;;;;;;12.27;4.93;;;;;;;;;;5032108;28;20390;-82
2021/08/27 00:11:42;;;;;;;10.90;5.37;;;;;;;;;;5032302;28;20254;-83
2021/08/27 00:14:09;;;;;;;10.77;4.80;;;;;;;;;;5032532;28;20229;-82
2021/08/27 00:16:36;;;;;;;10.53;5.00;;;;;;;;;;5046330;28;20709;-83
2021/08/27 00:19:03;;;;;;;10.57;5.10;;;;;;;;;;5051395;28;20287;-82
2021/08/27 00:21:30;;;;;;;11.30;4.90;;;;;;;;;;5051937;28;20200;-82
2021/08/27 00:24:01;;;;;;;10.37;4.90;;;;;;;;;;5051647;28;20229;-82
2021/08/27 00:26:28;;;;;;;11.80;5.20;;;;;;;;;;5051786;28;20569;-82
2021/08/27 00:28:55;;;;;;;10.77;4.90;;;;;;;;;;5052021;28;20227;-82
2021/08/27 00:31:23;;;;;;;8.37;4.37;;;;;;;;;;5040418;28;20306;-82
2021/08/27 00:33:50;;;;;;;11.83;4.73;;;;;;;;;;5050378;28;20196;-82
2021/08/27 00:36:17;;;;;;;10.23;4.93;;;;;;;;;;5050538;28;20238;-82
2021/08/27 00:38:44;;;;;;;10.07;4.80;;;;;;;;;;5051476;28;20238;-82
2021/08/27 00:41:14;;;;;;;8.33;4.60;;;;;;;;;;5040445;28;20691;-82
2021/08/27 00:43:41;;;;;;;10.20;4.80;;;;;;;;;;5039620;28;20634;-82
2021/08/27 00:46:08;;;;;;;10.07;4.80;;;;;;;;;;5050464;28;20203;-82
2021/08/27 00:48:35;;;;;;;8.70;5.13;;;;;;;;;;5046184;28;20705;-82
2021/08/27 00:51:04;;;;;;;12.07;5.03;;;;;;;;;;5051247;28;20847;-82
2021/08/27 00:53:31;;;;;;;9.97;5.37;;;;;;;;;;5036312;28;20203;-82
2021/08/27 00:55:58;;;;;;;10.40;5.07;;;;;;;;;;5038769;28;20333;-81
2021/08/27 00:58:27;;;;;;;10.57;4.90;;;;;;;;;;5044913;28;20787;-81
2021/08/27 01:00:54;;;;;;;10.87;5.27;;;;;;;;;;5046381;28;20285;-82
2021/08/27 01:03:22;;;;;;;11.80;5.00;;;;;;;;;;5050142;28;20259;-82
2021/08/27 01:05:51;;;;;;;11.50;5.07;;;;;;;;;;5051460;28;20286;-82
2021/08/27 01:08:21;;;;;;;10.53;5.20;;;;;;;;;;5050249;28;20192;-82
2021/08/27 01:10:54;;;;;;;10.07;4.67;;;;;;;;;;5050529;28;20310;-83
2021/08/27 01:13:24;;;;;;;9.20;4.93;;;;;;;;;;5032317;28;20283;-81
2021/08/27 01:15:58;;;;;;;9.80;5.20;;;;;;;;;;5050007;28;20282;-82
2021/08/27 01:18:28;;;;;;;10.13;5.00;;;;;;;;;;5049960;28;20224;-82
2021/08/27 01:21:13;;;;;;;10.30;5.20;;;;;;;;;;5050492;28;20627;-83
2021/08/27 01:23:41;;;;;;;9.50;5.17;;;;;;;;;;5037229;28;20230;-82
2021/08/27 01:26:09;;;;;;;10.67;5.63;;;;;;;;;;5051132;28;20283;-81
2021/08/27 01:28:38;;;;;;;11.27;5.70;;;;;;;;;;5051113;28;20210;-81
2021/08/27 01:31:21;;;;;;;12.53;5.13;;;;;;;;;;5047961;28;20263;-82
2021/08/27 01:34:01;;;;;;;8.60;5.37;;;;;;;;;;5054216;28;20756;-82
2021/08/27 01:36:30;;;;;;;9.33;4.87;;;;;;;;;;5048437;28;20222;-82
2021/08/27 01:38:58;;;;;;;11.03;4.97;;;;;;;;;;5034885;28;20223;-82
2021/08/27 01:41:26;;;;;;;9.37;5.30;;;;;;;;;;5054157;28;20237;-82
2021/08/27 01:43:54;;;;;;;11.03;5.73;;;;;;;;;;5050948;28;20316;-83
2021/08/27 01:46:21;;;;;;;10.50;5.60;;;;;;;;;;5037904;28;20196;-82
2021/08/27 01:48:50;;;;;;;11.27;5.43;;;;;;;;;;5045981;28;20283;-82
2021/08/27 01:51:17;;;;;;;14.83;5.40;;;;;;;;;;5042911;28;20308;-83
2021/08/27 01:53:46;;;;;;;11.70;5.53;;;;;;;;;;5054712;28;20238;-82
2021/08/27 01:56:14;;;;;;;9.67;5.23;;;;;;;;;;5055084;28;20310;-82
2021/08/27 01:58:41;;;;;;;12.27;5.80;;;;;;;;;;5054067;28;20302;-82
2021/08/27 02:01:08;;;;;;;8.80;5.57;;;;;;;;;;5053767;28;20664;-83
2021/08/27 02:03:36;;;;;;;13.43;6.07;;;;;;;;;;5034007;28;20260;-82
2021/08/27 02:06:03;;;;;;;11.33;5.37;;;;;;;;;;5034516;28;20280;-82
2021/08/27 02:08:31;;;;;;;14.37;6.27;;;;;;;;;;5038785;28;20285;-82
2021/08/27 02:11:00;;;;;;;12.80;5.93;;;;;;;;;;5054487;28;20314;-82
2021/08/27 02:13:28;;;;;;;11.80;6.00;;;;;;;;;;5052771;28;20294;-82
2021/08/27 02:15:55;;;;;;;11.27;6.23;;;;;;;;;;5034646;28;20381;-82
2021/08/27 02:18:22;;;;;;;11.03;5.77;;;;;;;;;;5041091;28;20229;-82
2021/08/27 02:20:50;;;;;;;12.27;5.27;;;;;;;;;;5037362;28;20280;-82
2021/08/27 02:23:17;;;;;;;9.60;5.53;;;;;;;;;;5051984;28;20218;-82
2021/08/27 02:25:46;;;;;;;10.87;5.63;;;;;;;;;;5052467;28;20289;-82
2021/08/27 02:28:16;;;;;;;8.70;5.40;;;;;;;;;;5051728;28;20304;-82
2021/08/27 02:30:43;;;;;;;14.03;5.27;;;;;;;;;;5053839;28;20638;-82
2021/08/27 02:33:12;;;;;;;11.57;5.43;;;;;;;;;;5054489;28;20282;-82
2021/08/27 02:35:40;;;;;;;11.83;5.43;;;;;;;;;;5042706;28;20291;-83
2021/08/27 02:38:07;;;;;;;10.47;5.33;;;;;;;;;;5034528;28;20723;-83
2021/08/27 02:40:34;;;;;;;12.10;5.80;;;;;;;;;;5033450;28;20571;-83
2021/08/27 02:43:02;;;;;;;9.87;5.23;;;;;;;;;;5049803;28;20227;-83
2021/08/27 02:45:30;;;;;;;10.53;5.50;;;;;;;;;;5044023;28;20284;-82
2021/08/27 02:47:57;;;;;;;11.63;5.70;;;;;;;;;;5033516;28;20288;-82
2021/08/27 02:50:25;;;;;;;9.93;5.30;;;;;;;;;;5033772;28;20291;-77
2021/08/27 02:52:54;;;;;;;11.13;5.50;;;;;;;;;;5049174;28;20655;-78
2021/08/27 02:55:23;;;;;;;9.90;5.70;;;;;;;;;;5051911;28;20294;-77
2021/08/27 02:57:54;;;;;;;9.07;5.50;;;;;;;;;;5034082;28;20211;-78
2021/08/27 03:00:21;;;;;;;12.07;5.87;;;;;;;;;;5033516;28;20300;-77
2021/08/27 03:02:50;;;;;;;10.13;5.37;;;;;;;;;;5036899;28;20327;-77
2021/08/27 03:05:19;;;;;;;10.10;5.67;;;;;;;;;;5052929;28;20286;-77
2021/08/27 03:07:48;;;;;;;8.63;5.03;;;;;;;;;;5053819;28;20311;-77
2021/08/27 03:10:18;;;;;;;9.90;5.40;;;;;;;;;;5033358;28;20295;-77
2021/08/27 03:12:48;;;;;;;10.73;5.47;;;;;;;;;;5033277;28;20331;-77
2021/08/27 03:15:18;;;;;;;12.17;5.77;;;;;;;;;;5042019;28;20735;-77
2021/08/27 03:17:46;;;;;;;9.60;5.90;;;;;;;;;;5053421;28;20201;-77
2021/08/27 03:20:17;;;;;;;12.13;5.13;;;;;;;;;;5052394;28;20759;-77
2021/08/27 03:22:47;;;;;;;8.53;5.47;;;;;;;;;;5046962;28;20298;-78
2021/08/27 03:25:15;;;;;;;9.37;5.43;;;;;;;;;;5033083;28;20286;-77
2021/08/27 03:27:43;;;;;;;9.07;5.60;;;;;;;;;;5034833;28;20622;-77
2021/08/27 03:30:12;;;;;;;10.57;5.57;;;;;;;;;;5033976;28;20279;-77
2021/08/27 03:32:39;;;;;;;12.07;5.70;;;;;;;;;;5035617;28;20216;-77
2021/08/27 03:35:07;;;;;;;11.50;6.10;;;;;;;;;;5032852;28;20287;-76
2021/08/27 03:37:36;;;;;;;10.37;5.67;;;;;;;;;;5033266;28;20236;-76
2021/08/27 03:40:03;;;;;;;11.63;6.27;;;;;;;;;;5034181;28;20220;-76
2021/08/27 03:42:31;;;;;;;9.43;5.63;;;;;;;;;;5051764;28;20279;-76
2021/08/27 03:44:58;;;;;;;7.97;5.43;;;;;;;;;;5052001;28;20663;-76
2021/08/27 03:47:25;;;;;;;11.17;5.77;;;;;;;;;;5052085;28;20290;-77
2021/08/27 03:49:53;;;;;;;10.37;5.23;;;;;;;;;;5052135;28;20206;-77
2021/08/27 03:52:21;;;;;;;12.97;6.20;;;;;;;;;;5051047;28;20235;-77
2021/08/27 03:54:50;;;;;;;11.43;5.97;;;;;;;;;;5051644;28;20329;-77
2021/08/27 03:57:18;;;;;;;9.70;5.90;;;;;;;;;;5050760;28;20227;-77
2021/08/27 03:59:45;;;;;;;13.60;5.90;;;;;;;;;;5052537;28;20287;-77
2021/08/27 04:02:13;;;;;;;7.83;5.27;;;;;;;;;;5050956;28;20251;-78
2021/08/27 04:04:41;;;;;;;11.10;6.10;;;;;;;;;;5038497;28;20284;-77
2021/08/27 04:07:08;;;;;;;7.90;5.47;;;;;;;;;;5049665;28;20741;-77
2021/08/27 04:09:36;;;;;;;11.63;5.93;;;;;;;;;;5046308;28;20739;-77
2021/08/27 04:12:06;;;;;;;9.63;5.17;;;;;;;;;;5031992;28;20242;-77
2021/08/27 04:14:33;;;;;;;15.93;6.00;;;;;;;;;;5039414;28;20236;-77
2021/08/27 04:17:02;;;;;;;8.00;5.20;;;;;;;;;;5051904;28;20639;-76
2021/08/27 04:19:29;;;;;;;8.87;5.53;;;;;;;;;;5051526;28;20209;-77
2021/08/27 04:21:56;;;;;;;11.83;5.70;;;;;;;;;;5052073;28;20284;-77
2021/08/27 04:24:25;;;;;;;9.10;5.33;;;;;;;;;;5052005;28;20295;-77
2021/08/27 04:26:52;;;;;;;6.83;5.50;;;;;;;;;;5037769;28;20205;-77
2021/08/27 04:29:20;;;;;;;10.20;6.00;;;;;;;;;;5034778;28;20298;-77
2021/08/27 04:31:47;;;;;;;9.17;5.60;;;;;;;;;;5050970;28;20313;-77
2021/08/27 04:34:15;;;;;;;9.13;5.77;;;;;;;;;;5050289;28;20219;-77
2021/08/27 04:36:42;;;;;;;9.17;5.67;;;;;;;;;;5051357;28;20930;-77
2021/08/27 04:39:09;;;;;;;9.77;5.27;;;;;;;;;;5051883;28;20237;-77
2021/08/27 04:41:36;;;;;;;8.40;5.43;;;;;;;;;;5051027;28;20287;-77
2021/08/27 04:44:03;;;;;;;10.07;5.50;;;;;;;;;;5046760;28;20251;-77
2021/08/27 04:46:32;;;;;;;10.27;5.67;;;;;;;;;;5043701;28;20283;-77
2021/08/27 04:48:59;;;;;;;10.27;6.30;;;;;;;;;;5050119;28;20291;-78
2021/08/27 04:51:27;;;;;;;10.43;6.00;;;;;;;;;;5051048;28;20286;-77
2021/08/27 04:53:54;;;;;;;9.83;5.90;;;;;;;;;;5051262;28;20201;-77
2021/08/27 04:56:21;;;;;;;9.03;5.47;;;;;;;;;;5050591;28;20284;-77
2021/08/27 04:58:48;;;;;;;7.80;5.03;;;;;;;;;;5031029;28;20292;-77
2021/08/27 05:01:15;;;;;;;7.33;4.90;;;;;;;;;;5039236;28;20651;-76
2021/08/27 05:03:44;;;;;;;8.70;4.87;;;;;;;;;;5053033;28;20333;-76
2021/08/27 05:06:11;;;;;;;9.17;5.47;;;;;;;;;;5058340;28;20198;-77
2021/08/27 05:08:38;;;;;;;11.83;5.57;;;;;;;;;;5049870;28;20228;-77
2021/08/27 05:11:06;;;;;;;11.10;6.07;;;;;;;;;;5057733;28;20730;-77
2021/08/27 05:13:33;;;;;;;9.83;5.80;;;;;;;;;;5056969;28;20740;-77
2021/08/27 05:16:01;;;;;;;9.27;5.50;;;;;;;;;;5057673;28;20282;-76
2021/08/27 05:18:29;;;;;;;12.27;5.70;;;;;;;;;;5057915;28;20227;-76
2021/08/27 05:20:58;;;;;;;9.73;5.00;;;;;;;;;;5057736;28;20199;-77
2021/08/27 05:23:25;;;;;;;9.73;5.50;;;;;;;;;;5057118;28;20290;-77
2021/08/27 05:25:53;;;;;;;9.80;5.70;;;;;;;;;;5056286;28;20742;-76
2021/08/27 05:28:20;;;;;;;8.67;5.37;;;;;;;;;;5057997;28;20196;-76
2021/08/27 05:30:47;;;;;;;11.47;5.33;;;;;;;;;;5057419;28;20233;-76
2021/08/27 05:33:15;;;;;;;9.13;5.30;;;;;;;;;;5049776;28;20255;-76
2021/08/27 05:35:42;;;;;;;8.90;5.67;;;;;;;;;;5058094;28;20604;-77
2021/08/27 05:38:10;;;;;;;14.77;5.17;;;;;;;;;;5057000;28;20228;-77
2021/08/27 05:40:38;;;;;;;10.30;5.40;;;;;;;;;;5058077;28;20244;-77
2021/08/27 05:43:05;;;;;;;7.73;4.50;;;;;;;;;;5056963;28;20737;-77
2021/08/27 05:45:32;;;;;;;7.50;4.50;;;;;;;;;;5040218;28;20283;-76
2021/08/27 05:47:59;;;;;;;8.60;5.23;;;;;;;;;;5047875;28;20298;-77
2021/08/27 05:50:27;;;;;;;11.07;5.10;;;;;;;;;;5037737;28;20207;-77
2021/08/27 05:52:54;;;;;;;9.20;4.60;;;;;;;;;;5040793;28;20312;-76
2021/08/27 05:55:22;;;;;;;8.33;4.93;;;;;;;;;;5057308;28;20342;-76
2021/08/27 05:57:50;;;;;;;6.60;4.60;;;;;;;;;;5057803;28;20227;-77
2021/08/27 06:00:17;;;;;;;8.83;4.20;;;;;;;;;;5056906;28;20287;-77
2021/08/27 06:02:46;;;;;;;6.17;4.20;;;;;;;;;;5055571;28;20276;-76
2021/08/27 06:05:13;;;;;;;6.03;4.00;;;;;;;;;;5037222;28;20204;-77
2021/08/27 06:07:40;;;;;;;8.00;4.20;;;;;;;;;;5053020;28;20201;-77
2021/08/27 06:10:11;;;;;;;7.27;4.40;;;;;;;;;;5056765;28;20238;-77
2021/08/27 06:12:39;;;;;;;7.20;4.63;;;;;;;;;;5056418;28;20285;-77
2021/08/27 06:15:07;;;;;;;6.57;3.97;;;;;;;;;;5055084;28;20235;-77
2021/08/27 06:17:34;;;;;;;6.87;4.50;;;;;;;;;;5049083;28;20665;-77
2021/08/27 06:20:01;;;;;;;8.37;4.30;;;;;;;;;;5044045;28;20232;-78
2021/08/27 06:22:28;;;;;;;5.83;4.57;;;;;;;;;;5038047;28;20203;-78
2021/08/27 06:24:56;;;;;;;8.80;4.53;;;;;;;;;;5049319;28;21009;-78
2021/08/27 06:27:23;;;;;;;6.47;4.13;;;;;;;;;;5047428;28;20208;-77
2021/08/27 06:29:51;;;;;;;8.00;4.53;;;;;;;;;;5052933;28;20723;-77
2021/08/27 06:32:19;;;;;;;7.93;4.43;;;;;;;;;;5052605;28;20258;-77
2021/08/27 06:34:46;;;;;;;4.40;3.63;;;;;;;;;;5038615;28;20223;-78
2021/08/27 06:37:13;;;;;;;5.97;3.80;;;;;;;;;;5048307;28;20306;-78
2021/08/27 06:39:41;;;;;;;5.60;3.60;;;;;;;;;;5037163;28;20200;-78
2021/08/27 06:42:08;;;;;;;5.73;3.93;;;;;;;;;;5051132;28;20604;-78
2021/08/27 06:44:35;;;;;;;6.90;3.83;;;;;;;;;;5047029;28;20290;-78
2021/08/27 06:47:04;;;;;;;5.55;3.97;;;;;;;;;;5048929;28;20228;-78
2021/08/27 06:49:31;;;;;;;7.38;3.63;;;;;;;;;;5046623;28;20283;-78
2021/08/27 06:51:58;;;;;;;5.70;3.70;;;;;;;;;;5048587;28;20818;-78
2021/08/27 06:54:25;;;;;;;6.18;3.92;;;;;;;;;;5042767;28;20230;-78
2021/08/27 06:56:52;;;;;;;6.22;4.05;;;;;;;;;;5052669;28;20283;-78
2021/08/27 06:59:20;;;;;;;6.20;3.65;;;;;;;;;;5041242;28;20326;-78
2021/08/27 07:01:47;;;;;;;7.05;3.75;;;;;;;;;;5048722;28;20251;-78
2021/08/27 07:04:15;;;;;;;8.07;3.58;;;;;;;;;;5052136;28;20196;-78
2021/08/27 07:06:43;;;;;;;6.40;3.90;;;;;;;;;;5051469;28;20539;-78
2021/08/27 07:09:10;;;;;;;7.82;4.03;;;;;;;;;;5051123;28;20231;-78
2021/08/27 07:11:37;;;;;;;5.93;3.47;;;;;;;;;;5044100;28;20279;-78
2021/08/27 07:14:04;;;;;;;7.97;3.97;;;;;;;;;;5039698;28;20307;-79
2021/08/27 07:16:32;;;;;;;7.78;4.18;;;;;;;;;;5045718;28;20255;-79
2021/08/27 07:18:59;;;;;;;6.90;3.75;;;;;;;;;;5051838;28;20231;-79
2021/08/27 07:21:27;;;;;;;6.22;3.60;;;;;;;;;;5051767;28;20671;-79
2021/08/27 07:23:55;;;;;;;7.00;3.92;;;;;;;;;;5049949;28;20287;-80
2021/08/27 07:26:22;;;;;;;5.93;3.80;;;;;;;;;;5050594;28;20643;-79
2021/08/27 07:28:49;;;;;;;6.30;3.45;;;;;;;;;;5051521;28;20242;-79
2021/08/27 07:31:16;;;;;;;7.55;3.72;;;;;;;;;;5046906;28;20287;-78
2021/08/27 07:33:44;;;;;;;6.38;3.50;;;;;;;;;;5047592;28;20258;-77
2021/08/27 07:36:11;;;;;;;5.72;2.97;;;;;;;;;;5034808;28;20203;-77
2021/08/27 07:38:39;;;;;;;6.25;3.25;;;;;;;;;;5037625;28;20311;-78
2021/08/27 07:41:06;;;;;;;6.60;3.10;;;;;;;;;;5046852;28;20290;-79
2021/08/27 07:43:34;;;;;;;6.40;3.25;;;;;;;;;;5035900;28;20188;-78
2021/08/27 07:46:01;;;;;;;6.30;3.20;;;;;;;;;;5048669;28;20295;-79
2021/08/27 07:48:28;;;;;;;7.47;3.30;;;;;;;;;;5050504;28;20203;-79
2021/08/27 07:50:56;;;;;;;4.70;3.13;;;;;;;;;;5051130;28;20539;-79
2021/08/27 07:53:24;;;;;;;6.85;3.65;;;;;;;;;;5048202;28;20219;-79
2021/08/27 07:55:52;;;;;;;6.65;3.35;;;;;;;;;;5034045;28;20200;-79
2021/08/27 07:58:20;;;;;;;7.28;3.70;;;;;;;;;;5045520;28;20227;-76
2021/08/27 08:00:47;;;;;;;9.77;3.65;;;;;;;;;;5037916;28;20236;-79
2021/08/27 08:03:14;;;;;;;7.25;4.05;;;;;;;;;;5032184;28;20323;-79
2021/08/27 08:05:41;;;;;;;5.57;3.63;;;;;;;;;;5044079;28;20818;-79
2021/08/27 08:08:08;;;;;;;9.43;4.60;;;;;;;;;;5046459;28;20250;-79
2021/08/27 08:10:36;;;;;;;12.20;5.00;;;;;;;;;;5049026;28;20643;-77
2021/08/27 08:13:04;;;;;;;8.15;4.13;;;;;;;;;;5040285;28;20251;-79
2021/08/27 08:15:31;;;;;;;8.63;4.10;;;;;;;;;;5052646;28;20196;-79
2021/08/27 08:18:00;;;;;;;8.18;3.78;;;;;;;;;;5039781;28;20292;-78
2021/08/27 08:20:27;;;;;;;7.55;3.88;;;;;;;;;;5039470;28;20247;-78
2021/08/27 08:22:54;;;;;;;8.98;3.65;;;;;;;;;;5041063;28;20642;-79
2021/08/27 08:25:21;;;;;;;8.13;3.40;;;;;;;;;;5040647;28;20196;-79
2021/08/27 08:27:49;;;;;;;8.45;3.95;;;;;;;;;;5050996;28;20200;-79
2021/08/27 08:30:17;;;;;;;6.18;3.60;;;;;;;;;;5051007;28;20643;-79
2021/08/27 08:32:46;;;;;;;7.30;3.42;;;;;;;;;;5051074;28;20659;-79
2021/08/27 08:35:13;;;;;;;5.53;3.42;;;;;;;;;;5045420;28;20577;-79
2021/08/27 08:37:41;;;;;;;8.32;3.28;;;;;;;;;;5046739;28;20278;-78
2021/08/27 08:40:09;;;;;;;10.00;3.53;;;;;;;;;;5045399;28;20231;-79
2021/08/27 08:42:37;;;;;;;7.88;3.40;;;;;;;;;;5038216;28;20251;-80
2021/08/27 08:45:04;;;;;;;8.63;3.22;;;;;;;;;;5046558;28;20800;-79
2021/08/27 08:47:33;;;;;;;8.05;3.17;;;;;;;;;;5048301;28;20231;-79
2021/08/27 08:50:01;;;;;;;7.22;3.55;;;;;;;;;;5038194;28;20754;-79
2021/08/27 08:52:32;;;;;;;7.53;2.95;;;;;;;;;;5032925;28;20556;-81
2021/08/27 08:54:59;;;;;;;8.20;3.50;;;;;;;;;;5032501;28;20236;-79
2021/08/27 08:57:28;;;;;;;5.40;3.25;;;;;;;;;;5046363;28;20227;-78
2021/08/27 08:59:56;;;;;;;9.60;3.55;;;;;;;;;;5036109;28;20279;-79
2021/08/27 09:02:23;;;;;;;7.35;3.47;;;;;;;;;;5038525;28;20315;-80
2021/08/27 09:04:51;;;;;;;7.22;2.90;;;;;;;;;;5037670;28;20278;-80
2021/08/27 09:07:18;;;;;;;8.18;3.42;;;;;;;;;;5037406;28;20254;-80
2021/08/27 09:09:46;;;;;;;7.38;2.83;;;;;;;;;;5044909;28;20282;-79
2021/08/27 09:12:18;;;;;;;7.32;3.35;;;;;;;;;;5051162;28;20227;-77
2021/08/27 09:14:55;;;;;;;6.28;2.88;;;;;;;;;;5048838;28;20215;-81
2021/08/27 09:17:29;;;;;;;7.63;2.92;;;;;;;;;;5046002;28;20298;-79
2021/08/27 09:19:58;;;;;;;6.53;2.80;;;;;;;;;;5045036;28;20618;-80
2021/08/27 09:22:28;;;;;;;6.60;2.53;;;;;;;;;;5046582;28;20228;-80
2021/08/27 09:25:05;;;;;;;9.27;2.78;;;;;;;;;;5038358;28;20215;-80
2021/08/27 09:27:35;;;;;;;7.70;2.45;;;;;;;;;;5037609;28;20234;-79
2021/08/27 09:30:02;;;;;;;7.35;2.72;;;;;;;;;;5044619;28;20207;-79
2021/08/27 09:32:31;;;;;;;6.22;2.70;;;;;;;;;;5042576;28;20222;-78
2021/08/27 09:35:07;;;;;;;11.13;3.13;;;;;;;;;;5047952;28;20253;-79
2021/08/27 09:37:42;;;;;;;13.63;3.35;;;;;;;;;;5040269;28;20196;-78
2021/08/27 09:40:10;;;;;;;7.75;2.88;;;;;;;;;;5041043;28;20242;-78
2021/08/27 09:42:38;;;;;;;8.63;2.85;;;;;;;;;;5045293;28;20257;-78
2021/08/27 09:45:05;;;;;;;8.25;3.08;;;;;;;;;;5029602;28;20311;-78
2021/08/27 09:47:32;;;;;;;6.22;3.05;;;;;;;;;;5042047;28;20287;-78
2021/08/27 09:50:19;;;;;;;7.95;2.85;;;;;;;;;;5050781;28;20290;-78
2021/08/27 09:52:53;;;;;;;7.10;3.10;;;;;;;;;;5045612;28;20284;-77
2021/08/27 09:55:20;;;;;;;9.73;3.05;;;;;;;;;;5051333;28;20204;-78
2021/08/27 09:57:47;;;;;;;5.70;2.80;;;;;;;;;;5048598;28;20284;-78
2021/08/27 10:00:18;;;;;;;6.65;3.05;;;;;;;;;;5049190;28;20192;-78
2021/08/27 10:02:45;;;;;;;8.30;2.90;;;;;;;;;;5051243;28;20619;-78
2021/08/27 10:05:13;;;;;;;9.93;2.63;;;;;;;;;;5040870;28;20652;-78
2021/08/27 10:07:41;;;;;;;8.10;2.95;;;;;;;;;;5053064;28;20231;-78
2021/08/27 10:10:10;;;;;;;7.50;2.92;;;;;;;;;;5047372;28;20703;-78
2021/08/27 10:12:38;;;;;;;10.00;3.10;;;;;;;;;;5049025;28;20287;-77
2021/08/27 10:15:06;;;;;;;11.18;3.08;;;;;;;;;;5044422;28;20777;-79
2021/08/27 10:17:35;;;;;;;6.93;2.67;;;;;;;;;;5043193;28;20282;-78
2021/08/27 10:20:04;;;;;;;6.75;2.50;;;;;;;;;;5050631;28;20798;-78
2021/08/27 10:22:31;;;;;;;7.25;2.78;;;;;;;;;;5042759;28;20593;-78
2021/08/27 10:24:58;;;;;;;5.75;2.55;;;;;;;;;;5051407;28;20246;-78
2021/08/27 10:27:27;;;;;;;6.40;2.95;;;;;;;;;;5045487;28;20668;-78
2021/08/27 10:29:55;;;;;;;7.80;3.00;;;;;;;;;;5053268;28;20287;-78
2021/08/27 10:32:41;;;;;;;7.82;3.05;;;;;;;;;;5051528;28;20228;-77
2021/08/27 10:35:09;;;;;;;5.82;2.65;;;;;;;;;;5040077;28;20258;-79
2021/08/27 10:37:43;;;;;;;6.68;2.70;;;;;;;;;;5036859;28;20232;-78
2021/08/27 10:40:26;;;;;;;7.20;2.90;;;;;;;;;;5042233;28;20195;-78
2021/08/27 10:42:56;;;;;;;8.20;2.95;;;;;;;;;;5052890;28;20222;-80
2021/08/27 10:45:38;;;;;;;9.77;2.88;;;;;;;;;;5047583;28;20203;-79
2021/08/27 10:48:10;;;;;;;8.35;3.00;;;;;;;;;;5051048;28;20578;-81
2021/08/27 10:50:38;;;;;;;9.85;3.20;;;;;;;;;;5051577;28;20783;-80
2021/08/27 10:53:24;;;;;;;6.43;2.72;;;;;;;;;;5042917;28;20235;-78
2021/08/27 10:55:52;;;;;;;7.07;3.10;;;;;;;;;;5034814;28;20682;-78
2021/08/27 10:58:23;;;;;;;6.68;2.88;;;;;;;;;;5049839;28;20283;-79
2021/08/27 11:00:52;;;;;;;9.07;3.00;;;;;;;;;;5052558;28;20345;-78
2021/08/27 11:03:21;;;;;;;6.00;2.75;;;;;;;;;;5072753;28;20239;-78
2021/08/27 11:05:49;;;;;;;7.35;3.00;;;;;;;;;;5039912;28;20205;-78
2021/08/27 11:08:17;;;;;;;6.75;3.10;;;;;;;;;;5033446;28;20287;-78
2021/08/27 11:10:46;;;;;;;8.05;3.28;;;;;;;;;;5050886;28;21933;-78
2021/08/27 11:13:14;;;;;;;8.93;3.10;;;;;;;;;;5052406;28;20286;-78
2021/08/27 11:15:43;;;;;;;7.22;3.05;;;;;;;;;;5044243;28;20200;-78
2021/08/27 11:18:14;;;;;;;5.85;2.83;;;;;;;;;;5049013;28;20675;-78
2021/08/27 11:20:41;;;;;;;9.05;3.70;;;;;;;;;;5045812;28;20235;-79
2021/08/27 11:23:09;;;;;;;6.05;3.20;;;;;;;;;;5043625;28;20218;-78
2021/08/27 11:25:36;;;;;;;9.60;3.42;;;;;;;;;;5041726;28;20227;-78
2021/08/27 11:28:17;;;;;;;8.50;3.00;;;;;;;;;;5050426;28;20207;-78
2021/08/27 11:30:46;;;;;;;8.18;3.22;;;;;;;;;;5035001;28;20193;-78
2021/08/27 11:33:32;;;;;;;8.80;3.25;;;;;;;;;;5036880;28;20228;-78
2021/08/27 11:36:00;;;;;;;7.95;3.13;;;;;;;;;;5047085;28;20303;-78
2021/08/27 11:38:32;;;;;;;7.30;2.72;;;;;;;;;;5047329;28;20210;-78
2021/08/27 11:41:00;;;;;;;7.90;3.20;;;;;;;;;;5043486;28;20647;-78
2021/08/27 11:43:35;;;;;;;13.25;3.03;;;;;;;;;;5048642;28;20205;-81
2021/08/27 11:46:04;;;;;;;7.60;3.13;;;;;;;;;;5044915;28;20203;-78
2021/08/27 11:48:35;;;;;;;6.38;2.58;;;;;;;;;;5035746;28;20291;-79
2021/08/27 11:51:03;;;;;;;7.45;3.20;;;;;;;;;;5042990;28;20254;-80
2021/08/27 11:53:38;;;;;;;7.32;2.95;;;;;;;;;;5045193;28;20246;-78
2021/08/27 11:56:06;;;;;;;10.25;2.95;;;;;;;;;;5044337;28;20196;-78
2021/08/27 11:58:41;;;;;;;8.95;3.13;;;;;;;;;;5047646;28;20640;-78
2021/08/27 12:01:23;;;;;;;7.55;3.22;;;;;;;;;;5042648;28;20294;-79
2021/08/27 12:03:51;;;;;;;7.88;3.45;;;;;;;;;;5042984;28;20251;-81
2021/08/27 12:06:21;;;;;;;5.47;2.83;;;;;;;;;;5054115;28;20239;-82
2021/08/27 12:08:48;;;;;;;6.80;2.65;;;;;;;;;;5046174;28;20283;-82
2021/08/27 12:11:16;;;;;;;6.68;2.92;;;;;;;;;;5041941;28;20203;-82
2021/08/27 12:13:51;;;;;;;7.50;3.38;;;;;;;;;;5048289;28;20239;-82
2021/08/27 12:16:20;;;;;;;6.63;2.88;;;;;;;;;;5053856;28;20291;-82
2021/08/27 12:18:51;;;;;;;6.57;2.92;;;;;;;;;;5049699;28;20235;-83
2021/08/27 12:21:22;;;;;;;7.10;3.03;;;;;;;;;;5047523;28;20265;-82
2021/08/27 12:23:58;;;;;;;7.15;2.92;;;;;;;;;;5051516;28;20246;-83
2021/08/27 12:26:25;;;;;;;5.38;2.75;;;;;;;;;;5051784;28;20196;-81
2021/08/27 12:28:53;;;;;;;6.57;3.30;;;;;;;;;;5047046;28;20283;-82
2021/08/27 12:31:22;;;;;;;5.53;2.50;;;;;;;;;;5042097;28;20715;-81
2021/08/27 12:33:49;;;;;;;6.32;3.08;;;;;;;;;;5043276;28;20231;-82
2021/08/27 12:36:16;;;;;;;6.30;3.05;;;;;;;;;;5051247;28;20292;-82
2021/08/27 12:38:43;;;;;;;6.70;2.92;;;;;;;;;;5038592;28;20291;-82
2021/08/27 12:41:15;;;;;;;6.70;3.38;;;;;;;;;;5050765;28;20210;-81
2021/08/27 12:43:42;;;;;;;7.25;2.92;;;;;;;;;;5045803;28;20200;-82
2021/08/27 12:46:10;;;;;;;6.13;3.22;;;;;;;;;;5051861;28;20740;-81
2021/08/27 12:48:38;;;;;;;9.68;3.05;;;;;;;;;;5043307;28;20288;-82
2021/08/27 12:51:09;;;;;;;10.07;3.28;;;;;;;;;;5041201;28;20263;-82
2021/08/27 12:53:37;;;;;;;7.93;3.00;;;;;;;;;;5033838;28;20204;-82
2021/08/27 12:56:09;;;;;;;7.10;2.85;;;;;;;;;;5038276;28;20216;-82
2021/08/27 12:58:36;;;;;;;6.82;3.20;;;;;;;;;;5048381;28;20292;-82
2021/08/27 13:01:12;;;;;;;9.10;3.30;;;;;;;;;;5039246;28;20258;-82
2021/08/27 13:03:41;;;;;;;7.45;2.63;;;;;;;;;;5033288;28;20317;-82
2021/08/27 13:06:29;;;;;;;8.20;3.22;;;;;;;;;;5051387;28;20253;-82
2021/08/27 13:08:59;;;;;;;5.28;3.00;;;;;;;;;;5051263;28;20206;-82
2021/08/27 13:11:26;;;;;;;5.25;2.90;;;;;;;;;;5052011;28;20242;-83
2021/08/27 13:13:55;;;;;;;6.63;2.97;;;;;;;;;;5051307;28;20226;-82
2021/08/27 13:16:23;;;;;;;6.32;3.40;;;;;;;;;;5047769;28;20199;-82
2021/08/27 13:18:52;;;;;;;7.88;3.50;;;;;;;;;;5044956;28;20624;-82
2021/08/27 13:21:20;;;;;;;10.52;3.92;;;;;;;;;;5044118;28;20766;-82
2021/08/27 13:24:05;;;;;;;8.85;3.85;;;;;;;;;;5046158;28;20619;-82
2021/08/27 13:26:32;;;;;;;7.85;2.78;;;;;;;;;;5048856;28;20199;-82
2021/08/27 13:28:59;;;;;;;8.07;3.17;;;;;;;;;;5048858;28;20327;-82
2021/08/27 13:31:26;;;;;;;7.53;3.25;;;;;;;;;;5057514;28;20204;-82
2021/08/27 13:33:55;;;;;;;7.75;3.00;;;;;;;;;;5054664;28;20208;-81
2021/08/27 13:36:23;;;;;;;6.38;3.13;;;;;;;;;;5049375;28;20223;-82
2021/08/27 13:38:50;;;;;;;7.20;3.10;;;;;;;;;;5046738;28;20235;-82
2021/08/27 13:41:18;;;;;;;8.35;3.53;;;;;;;;;;5050510;28;20270;-83
2021/08/27 13:43:45;;;;;;;7.32;3.22;;;;;;;;;;5037411;28;20204;-81
2021/08/27 13:46:12;;;;;;;6.00;3.05;;;;;;;;;;5050445;28;20234;-82
2021/08/27 13:48:40;;;;;;;7.93;3.53;;;;;;;;;;5054379;28;20239;-83
2021/08/27 13:51:09;;;;;;;10.18;3.38;;;;;;;;;;5053721;28;20282;-83
2021/08/27 13:53:36;;;;;;;6.90;3.13;;;;;;;;;;5038018;28;20235;-83
2021/08/27 13:56:03;;;;;;;7.13;3.35;;;;;;;;;;5042624;28;20661;-82
2021/08/27 13:58:32;;;;;;;8.27;3.22;;;;;;;;;;5052609;28;20238;-82
2021/08/27 14:00:59;;;;;;;7.05;3.45;;;;;;;;;;5056784;28;20532;-82
2021/08/27 14:03:26;;;;;;;8.63;3.70;;;;;;;;;;5052685;28;20266;-79
2021/08/27 14:05:54;;;;;;;6.95;3.40;;;;;;;;;;5050407;28;20273;-80
2021/08/27 14:08:22;;;;;;;8.43;3.60;;;;;;;;;;5052613;28;20230;-81
2021/08/27 14:10:50;;;;;;;7.72;3.10;;;;;;;;;;5051328;28;20222;-86
2021/08/27 14:13:17;;;;;;;9.07;3.55;;;;;;;;;;5047277;28;20261;-86
2021/08/27 14:15:49;;;;;;;8.25;3.33;;;;;;;;;;5044752;28;20227;-87
2021/08/27 14:18:17;;;;;;;6.30;3.78;;;;;;;;;;5052064;28;20234;-86
2021/08/27 14:20:46;;;;;;;9.45;3.90;;;;;;;;;;5050086;28;20204;-85
2021/08/27 14:23:13;;;;;;;6.93;3.47;;;;;;;;;;5052757;28;20617;-86
2021/08/27 14:25:42;;;;;;;8.32;3.35;;;;;;;;;;5054371;28;20204;-86
2021/08/27 14:28:09;;;;;;;8.38;3.40;;;;;;;;;;5050927;28;20740;-84
2021/08/27 14:30:40;;;;;;;7.47;3.25;;;;;;;;;;5051918;28;20370;-84
2021/08/27 14:33:07;;;;;;;4.50;3.25;;;;;;;;;;5047551;28;20224;-84
2021/08/27 14:35:34;;;;;;;5.97;3.10;;;;;;;;;;5049883;28;20251;-84
2021/08/27 14:38:02;;;;;;;5.45;3.28;;;;;;;;;;5038534;28;20282;-82
2021/08/27 14:40:29;;;;;;;6.88;3.85;;;;;;;;;;5046328;28;20794;-82
2021/08/27 14:42:59;;;;;;;8.50;4.05;;;;;;;;;;5046539;28;20200;-83
2021/08/27 14:45:27;;;;;;;6.70;3.60;;;;;;;;;;5048317;28;20231;-82
2021/08/27 14:47:55;;;;;;;8.23;3.33;;;;;;;;;;5050802;28;20283;-83
2021/08/27 14:50:22;;;;;;;8.82;3.70;;;;;;;;;;5050362;28;20208;-82